To NAV CANADA Home Page Login to a new session Search on AWWS site Feedback and Comments Disclaimer Vers la page française équivalente Tips FAQ What's new on the site To the Forecasts and Observations / NOTAM section To "File a Flight Plan" website Publications and other links Update of the User's profile FIC Telephone Numbers My Weather Data Folder Route Weather Data Regional Weather Data Local Weather Data To the Forecasts and Observations / NOTAM section
Request Generated 03/23/2017 at 00:17:05 UTC . Weather information available at that time is displayed.


Go to a specific product

Save this request

NOTAM

NOTAM


SIGMET
To the Product Selector

SIGMETS GFACN32

WSCN32 CWEG 221839
SIGMET C6 VALID 221645/222045 CWEG-
CZEG EDMONTON FIR CNCL SIGMET C5 221645/222045
RMK GFACN32/CZWG WINNIPEG FIR SIGMET D4=
END/WSCN22/CWAO

WSCN32 CWEG 222210
SIGMET D6 VALID 222210/230210 CWEG-
CZWG WINNIPEG FIR SEV ICG (FZRA) FCST WTN 25 NM OF LINE /N5347 W10605/45 NW CYPA
- /N5312 W10313/45 NW CYHB - /N5207 W10031/60 N CYDN SFC/FL030 MOV ENE 25KT NC
RMK GFACN32=
END/WSCN23/CWAO



AIRMET
To the Product Selector

AIRMETS GFACN32

GFACN32 - No AIRMET bulletins in effect



PIREP
To the Product Selector

FIR_WINNIPEG (WG)

UACN10 CYWG 230005
WG
UA /OV CJR3 /TM 0000 /FLUNKN /TP UNKN /RM VIS 1/4-1/2 BLSN REPORTED BY PILOT ON GROUND

UACN10 CYPA 222356
WG
UA /OV CYPA /TM 2345 /FLDURD /TP AT43 /SK 031OVC /RM NIL ICG

UACN10 CYWG 222337
WG
UA /OV CYQK /TM 2310 /FLDURC /TP TBM9 /IC MDT MXD 080-140

UACN10 CYWG 222228
WG
UA /OV CYWG 100065 /TM 2220 /FLDURD /TP C208 /IC MDT MXD 090-110


METAR/TAF
To the Product Selector

REGINA/REGINA INTL/SK    

METAR CYQR 230000Z 13016G22KT 15SM FEW250 03/M01 A2972 RMK CI1 CI TR
SLP095=
METAR CYQR 222300Z 14019G24KT 15SM FEW210 03/M01 A2973 RMK CI1
SLP101=
METAR CYQR 222200Z 15019G26KT 15SM FEW023 FEW210 04/M01 A2974 RMK
SC1CI1 SC TR SLP103=

TAF CYQR 222342Z 2300/2324 14015G25KT P6SM FEW020 FEW210
BECMG 2300/2302 16015KT
FM230600 26012KT P6SM SKC
BECMG 2307/2309 29006KT
FM231000 32006KT 2SM BR SCT006 OVC012 PROB40 2310/2316 1/2SM FZFG
OVC002
FM231800 32006KT P6SM SKC
RMK NXT FCST BY 230600Z=

MOOSE JAW/AIR VICE MARSHAL C.M. MCEWEN/SK    

SPECI CYMJ 230008Z CCA 19011KT 15SM FEW220 13/03 A2965 RMK CI0 LAST OBS/NEXT 231000 UTC SLP061=
SPECI CYMJ 230008Z 19011KT 15SM FEW220 13/03 A2965 RMK CI0 SLP061=
METAR CYMJ 230000Z 19012KT 15SM FEW220 13/03 A2965 RMK CI0 SLP061=
METAR CYMJ 222300Z 21012G18KT 15SM FEW220 13/03 A2967 RMK CI0 SLP068=
METAR CYMJ 222200Z 21014KT 15SM FEW025 FEW210 12/03 A2969 RMK SC0CI0 SLP076=

TAF AMD CYMJ 230014Z 2300/2312 FCST CNCLD DUE END OF FLYING PROGRAM
RMK NXT FCST WILL BE ISSUED AT 231115Z=


RADAR PCPN RATE
To the Product Selector
Pacific Canada      Western Canada     

SATELLITE VISIBLE
To the Product Selector
West Canada      

SATELLITE INFRARED
To the Product Selector
West Canada     

GRAPHICAL FA CLOUDS & WEATHER FORECASTS
To the Product Selector
Graphical FA gfacn32      

GRAPHICAL FA ICING, TURBULENCE & FREEZING LEVEL FORECASTS
To the Product Selector
Graphical FA gfacn32      

FDTEXT Low Level FD. Temperatures are not forecast for the 3,000-foot level.
To the Product Selector
STN YQR - REGINA. SASK for use 3000 6000 9000 12000 18000
FDCN01 CWAO FCST BASED ON 221200 DATA VALID 221800 17-21 2118+04 2422+01 2430-05 2534-18
FDCN02 CWAO FCST BASED ON 221200 DATA VALID 230000 21-06 2433+04 2640+00 2438-05 2551-19
FDCN03 CWAO FCST BASED ON 221200 DATA VALID 231200 06-17 3124+03 2927-05 2832-10 2537-22



Your time UTC time
Weather data provided by Environment Canada and NAV CANADA